createdAt,value
2022-12-29T00:00:20.293Z,5.20
2022-12-29T00:02:47.600Z,6.65
2022-12-29T00:05:14.793Z,8.85
2022-12-29T00:07:41.818Z,7.78
2022-12-29T00:10:09.091Z,8.00
2022-12-29T00:12:54.654Z,5.68
2022-12-29T00:15:40.274Z,4.85
2022-12-29T00:18:08.506Z,6.32
2022-12-29T00:20:56.222Z,6.13
2022-12-29T00:23:42.057Z,4.95
2022-12-29T00:26:36.989Z,6.63
2022-12-29T00:29:33.931Z,2.95
2022-12-29T00:32:19.827Z,4.32
2022-12-29T00:35:05.707Z,5.75
2022-12-29T00:37:51.623Z,5.40
2022-12-29T00:40:37.109Z,3.88
2022-12-29T00:43:22.810Z,5.75
2022-12-29T00:45:49.816Z,7.75
2022-12-29T00:48:36.874Z,3.88
2022-12-29T00:51:04.060Z,4.03
2022-12-29T00:53:31.112Z,3.20
2022-12-29T00:55:58.101Z,4.32
2022-12-29T00:58:27.560Z,7.15
2022-12-29T01:01:10.500Z,4.50
2022-12-29T01:03:38.881Z,2.60
2022-12-29T01:06:08.964Z,9.00
2022-12-29T01:08:38.320Z,4.03
2022-12-29T01:11:13.134Z,6.47
2022-12-29T01:13:42.045Z,4.45
2022-12-29T01:16:09.171Z,3.38
2022-12-29T01:18:36.249Z,3.05
2022-12-29T01:21:07.489Z,8.05
2022-12-29T01:23:34.520Z,2.97
2022-12-29T01:26:12.458Z,3.88
2022-12-29T01:28:42.731Z,3.30
2022-12-29T01:31:15.171Z,3.78
2022-12-29T01:33:43.261Z,4.82
2022-12-29T01:36:13.819Z,4.00
2022-12-29T01:38:42.564Z,4.90
2022-12-29T01:41:11.593Z,5.50
2022-12-29T01:43:48.613Z,3.97
2022-12-29T01:46:44.619Z,5.22
2022-12-29T01:49:25.223Z,6.22
2022-12-29T01:51:59.988Z,4.05
2022-12-29T01:54:39.894Z,3.90
2022-12-29T01:57:12.100Z,2.10
2022-12-29T01:59:44.801Z,6.63
2022-12-29T02:02:12.284Z,3.53
2022-12-29T02:04:45.388Z,3.10
2022-12-29T02:07:19.123Z,4.60
2022-12-29T02:09:56.451Z,4.13
2022-12-29T02:12:24.801Z,5.20
2022-12-29T02:14:56.648Z,6.88
2022-12-29T02:17:23.519Z,6.07
2022-12-29T02:20:24.467Z,4.43
2022-12-29T02:23:21.671Z,4.93
2022-12-29T02:26:13.508Z,8.18
2022-12-29T02:28:59.507Z,4.75
2022-12-29T02:31:52.914Z,5.32
2022-12-29T02:34:19.874Z,9.35
2022-12-29T02:37:01.493Z,5.60
2022-12-29T02:39:56.731Z,5.00
2022-12-29T02:42:29.903Z,5.97
2022-12-29T02:45:35.922Z,3.90
2022-12-29T02:48:18.588Z,6.82
2022-12-29T02:50:56.443Z,5.10
2022-12-29T02:54:01.114Z,5.57
2022-12-29T02:56:28.213Z,6.15
2022-12-29T02:58:55.223Z,5.05
2022-12-29T03:02:04.190Z,4.55
2022-12-29T03:04:55.971Z,3.85
2022-12-29T03:07:40.738Z,5.38
2022-12-29T03:10:23.311Z,5.38
2022-12-29T03:13:20.443Z,4.47
2022-12-29T03:16:08.362Z,5.50
2022-12-29T03:18:57.865Z,7.40
2022-12-29T03:21:58.628Z,7.03
2022-12-29T03:24:31.285Z,8.32
2022-12-29T03:27:02.246Z,5.63
2022-12-29T03:29:40.919Z,4.85
2022-12-29T03:32:13.190Z,5.60
2022-12-29T03:34:40.844Z,9.85
2022-12-29T03:37:15.926Z,5.15
2022-12-29T03:39:43.349Z,4.57
2022-12-29T03:42:22.852Z,7.75
2022-12-29T03:44:54.047Z,7.60
2022-12-29T03:47:21.823Z,5.93
2022-12-29T03:49:49.971Z,6.28
2022-12-29T03:52:17.651Z,6.43
2022-12-29T03:54:46.707Z,7.35
2022-12-29T03:57:14.347Z,9.90
2022-12-29T04:00:08.721Z,5.53
2022-12-29T04:02:51.059Z,5.03
2022-12-29T04:05:21.563Z,6.72
2022-12-29T04:07:50.491Z,6.22
2022-12-29T04:10:17.876Z,6.65
2022-12-29T04:12:47.692Z,6.40
2022-12-29T04:15:15.362Z,4.97
2022-12-29T04:17:42.801Z,10.07
2022-12-29T04:20:28.730Z,4.63
2022-12-29T04:23:05.049Z,5.93
2022-12-29T04:25:34.248Z,8.35
2022-12-29T04:28:02.120Z,8.48
2022-12-29T04:30:48.402Z,7.47
2022-12-29T04:33:22.133Z,4.38
2022-12-29T04:35:49.353Z,9.98
2022-12-29T04:38:17.483Z,6.65
2022-12-29T04:40:47.710Z,8.05
2022-12-29T04:43:16.837Z,5.13
2022-12-29T04:46:20.719Z,7.18
2022-12-29T04:48:53.091Z,7.05
2022-12-29T04:51:38.457Z,10.70
2022-12-29T04:54:06.887Z,10.27
2022-12-29T04:56:34.448Z,6.38
2022-12-29T04:59:01.482Z,8.75
2022-12-29T05:01:28.644Z,10.45
2022-12-29T05:03:55.811Z,5.50
2022-12-29T05:06:23.528Z,10.20
2022-12-29T05:08:50.753Z,6.43
2022-12-29T05:11:17.929Z,7.65
2022-12-29T05:13:47.771Z,7.55
2022-12-29T05:18:43.855Z,4.00
2022-12-29T05:21:11.403Z,6.95
2022-12-29T05:23:40.868Z,5.80
2022-12-29T05:26:07.975Z,5.78
2022-12-29T05:28:57.004Z,6.47
2022-12-29T05:31:23.998Z,10.43
2022-12-29T05:33:51.185Z,9.93
2022-12-29T05:36:18.824Z,13.82
2022-12-29T05:38:53.041Z,23.55
2022-12-29T05:41:20.405Z,8.57
2022-12-29T05:44:07.810Z,8.20
2022-12-29T05:46:48.276Z,7.63
2022-12-29T05:49:33.919Z,11.13
2022-12-29T05:52:09.947Z,6.57
2022-12-29T05:54:37.334Z,6.82
2022-12-29T05:57:10.069Z,10.85
2022-12-29T05:59:38.609Z,8.25
2022-12-29T06:02:06.095Z,10.57
2022-12-29T06:04:33.596Z,11.75
2022-12-29T06:07:00.782Z,4.60
2022-12-29T06:09:39.097Z,7.13
2022-12-29T06:12:07.314Z,9.57
2022-12-29T06:14:34.563Z,9.77
2022-12-29T06:17:03.867Z,5.72
2022-12-29T06:19:30.937Z,7.93
2022-12-29T06:21:58.005Z,11.43
2022-12-29T06:24:25.037Z,7.43
2022-12-29T06:26:53.093Z,6.60
2022-12-29T06:29:21.669Z,8.70
2022-12-29T06:31:49.939Z,8.48
2022-12-29T06:34:17.077Z,8.10
2022-12-29T06:36:44.458Z,5.57
2022-12-29T06:39:11.910Z,8.18
2022-12-29T06:41:39.046Z,9.20
2022-12-29T06:44:31.101Z,9.88
2022-12-29T06:47:01.454Z,9.73
2022-12-29T06:49:28.480Z,7.80
2022-12-29T06:51:55.466Z,9.30
2022-12-29T06:54:22.461Z,11.13
2022-12-29T06:56:49.477Z,12.02
2022-12-29T06:59:16.481Z,11.80
2022-12-29T07:01:44.495Z,10.75
2022-12-29T07:04:11.561Z,10.20
2022-12-29T07:06:38.631Z,9.32
2022-12-29T07:09:05.595Z,7.97
2022-12-29T07:11:32.627Z,9.10
2022-12-29T07:14:05.202Z,9.85
2022-12-29T07:16:33.692Z,11.48
2022-12-29T07:19:01.324Z,7.50
2022-12-29T07:21:28.412Z,10.27
2022-12-29T07:23:55.920Z,5.70
2022-12-29T07:26:23.171Z,9.77
2022-12-29T07:28:50.165Z,11.73
2022-12-29T07:31:20.169Z,7.88
2022-12-29T07:33:48.682Z,76.70
2022-12-29T07:36:16.872Z,19.13
2022-12-29T07:38:44.396Z,6.78
2022-12-29T07:41:11.422Z,10.55
2022-12-29T07:43:38.670Z,14.93
2022-12-29T07:46:55.133Z,12.48
2022-12-29T07:49:17.623Z,10.93
2022-12-29T07:51:44.702Z,7.97
2022-12-29T07:54:13.160Z,7.38
2022-12-29T07:56:40.189Z,6.97
2022-12-29T07:59:07.229Z,9.77
2022-12-29T08:01:34.312Z,10.52
2022-12-29T08:04:01.584Z,6.75
2022-12-29T08:06:29.781Z,10.80
2022-12-29T08:08:57.360Z,11.07
2022-12-29T08:11:25.279Z,9.55
2022-12-29T08:13:52.297Z,10.75
2022-12-29T08:16:19.405Z,10.90
2022-12-29T08:18:46.538Z,9.27
2022-12-29T08:21:13.576Z,10.82
2022-12-29T08:23:40.579Z,12.38
2022-12-29T08:26:07.607Z,11.10
2022-12-29T08:28:34.627Z,12.90
2022-12-29T08:31:02.733Z,14.30
2022-12-29T08:33:30.300Z,12.45
2022-12-29T08:36:01.810Z,10.73
2022-12-29T08:38:30.204Z,12.98
2022-12-29T08:40:59.036Z,8.43
2022-12-29T08:43:26.579Z,16.75
2022-12-29T08:45:53.664Z,15.02
2022-12-29T08:48:23.233Z,16.85
2022-12-29T08:50:51.235Z,22.98
2022-12-29T08:53:19.324Z,17.48
2022-12-29T08:55:47.651Z,15.85
2022-12-29T08:58:17.565Z,15.00
2022-12-29T09:03:12.660Z,18.25
2022-12-29T09:05:39.734Z,17.67
2022-12-29T09:08:06.818Z,28.67
2022-12-29T09:10:33.886Z,52.75
2022-12-29T09:13:01.213Z,20.27
2022-12-29T09:15:28.435Z,22.38
2022-12-29T09:17:56.403Z,15.57
2022-12-29T09:20:23.825Z,13.52
2022-12-29T09:22:50.907Z,21.30
2022-12-29T09:25:18.088Z,18.45
2022-12-29T09:27:45.161Z,14.13
2022-12-29T09:30:15.481Z,13.25
2022-12-29T09:32:45.443Z,14.52
2022-12-29T09:35:14.616Z,14.85
2022-12-29T09:37:41.617Z,11.65
2022-12-29T09:40:19.460Z,15.52
2022-12-29T09:42:53.437Z,15.30
2022-12-29T09:45:29.005Z,16.25
2022-12-29T09:47:56.188Z,11.13
2022-12-29T09:50:25.866Z,13.52
2022-12-29T09:53:07.065Z,11.65
2022-12-29T09:55:42.116Z,12.95
2022-12-29T09:58:22.579Z,11.93
2022-12-29T10:01:01.657Z,19.23
2022-12-29T10:03:42.196Z,14.18
2022-12-29T10:06:18.625Z,14.05
2022-12-29T10:09:19.329Z,14.75
2022-12-29T10:11:52.332Z,11.85
2022-12-29T10:14:42.126Z,16.70
2022-12-29T10:17:29.627Z,17.95
2022-12-29T10:20:14.855Z,13.25
2022-12-29T10:22:50.453Z,17.08
2022-12-29T10:27:51.047Z,14.80
2022-12-29T10:30:19.332Z,19.38
2022-12-29T10:32:59.709Z,16.08
2022-12-29T10:35:36.962Z,18.67
2022-12-29T10:38:12.397Z,17.67
2022-12-29T10:40:55.151Z,15.95
2022-12-29T10:43:28.103Z,17.85
2022-12-29T10:46:02.678Z,18.95
2022-12-29T10:48:32.684Z,17.85
2022-12-29T10:51:03.299Z,20.42
2022-12-29T10:53:56.797Z,21.80
2022-12-29T10:56:38.589Z,17.33
2022-12-29T10:59:20.301Z,15.02
2022-12-29T11:02:12.013Z,23.73
2022-12-29T11:05:05.350Z,17.40
2022-12-29T11:07:32.954Z,17.75
2022-12-29T11:10:21.186Z,18.85
2022-12-29T11:13:19.240Z,15.05
2022-12-29T11:15:48.298Z,16.58
2022-12-29T11:18:26.011Z,18.92
2022-12-29T11:21:01.506Z,21.58
2022-12-29T11:23:37.080Z,18.05
2022-12-29T11:26:22.239Z,16.60
2022-12-29T11:29:17.451Z,19.80
2022-12-29T11:32:26.119Z,18.98
2022-12-29T11:34:55.407Z,17.55
2022-12-29T11:37:28.052Z,23.33
2022-12-29T11:40:02.386Z,20.92
2022-12-29T11:42:49.860Z,19.42
2022-12-29T11:45:23.783Z,17.17
2022-12-29T11:47:58.335Z,19.75
2022-12-29T11:50:32.098Z,20.40
2022-12-29T11:53:06.906Z,16.83
2022-12-29T11:55:34.675Z,25.65
2022-12-29T11:58:05.331Z,20.15
2022-12-29T12:00:36.917Z,19.05
2022-12-29T12:03:22.093Z,34.88
2022-12-29T12:06:02.570Z,20.30
2022-12-29T12:08:53.289Z,16.95
2022-12-29T12:11:26.114Z,17.25
2022-12-29T12:14:13.076Z,19.80
2022-12-29T12:17:05.879Z,17.35
2022-12-29T12:19:48.105Z,17.13
2022-12-29T12:22:19.032Z,15.70
2022-12-29T12:24:51.486Z,17.63
2022-12-29T12:27:36.067Z,18.70
2022-12-29T12:30:16.777Z,17.05
2022-12-29T12:32:56.457Z,14.85
2022-12-29T12:35:41.796Z,24.95
2022-12-29T12:38:45.839Z,18.48
2022-12-29T12:41:21.569Z,18.60
2022-12-29T12:43:56.110Z,17.65
2022-12-29T12:46:44.353Z,13.65
2022-12-29T12:49:33.071Z,13.80
2022-12-29T12:52:23.051Z,17.33
2022-12-29T12:55:19.247Z,16.15
2022-12-29T12:58:13.213Z,14.93
2022-12-29T13:00:55.057Z,14.50
2022-12-29T13:03:48.843Z,18.33
2022-12-29T13:06:33.998Z,15.60
2022-12-29T13:09:16.135Z,13.25
2022-12-29T13:12:09.063Z,12.60
2022-12-29T13:15:21.588Z,12.88
2022-12-29T13:17:57.820Z,15.68
2022-12-29T13:20:41.166Z,18.00
2022-12-29T13:23:17.857Z,13.93
2022-12-29T13:26:23.347Z,11.98
2022-12-29T13:29:25.899Z,17.90
2022-12-29T13:32:30.211Z,20.85
2022-12-29T13:35:30.585Z,17.10
2022-12-29T13:38:20.923Z,21.45
2022-12-29T13:40:52.307Z,13.93
2022-12-29T13:43:21.291Z,16.25
2022-12-29T13:46:00.854Z,13.93
2022-12-29T13:48:44.620Z,16.38
2022-12-29T13:51:13.015Z,15.48
2022-12-29T13:53:54.955Z,19.95
2022-12-29T13:56:55.960Z,17.38
2022-12-29T13:59:42.763Z,16.50
2022-12-29T14:02:37.259Z,18.67
2022-12-29T14:05:26.695Z,17.08
2022-12-29T14:08:03.184Z,15.50
2022-12-29T14:10:36.367Z,16.52
2022-12-29T14:13:07.657Z,14.57
2022-12-29T14:15:42.143Z,19.67
2022-12-29T14:18:19.204Z,19.15
2022-12-29T14:20:57.072Z,18.77
2022-12-29T14:23:44.231Z,21.98
2022-12-29T14:26:16.167Z,22.30
2022-12-29T14:28:49.234Z,18.38
2022-12-29T14:31:16.280Z,20.63
2022-12-29T14:34:09.803Z,17.95
2022-12-29T14:39:25.759Z,15.68
2022-12-29T14:42:07.659Z,17.58
2022-12-29T14:44:35.434Z,18.83
2022-12-29T14:47:09.221Z,19.92
2022-12-29T14:49:45.514Z,18.02
2022-12-29T14:52:22.691Z,31.40
2022-12-29T14:55:43.523Z,24.52
2022-12-29T14:58:31.993Z,23.17
2022-12-29T15:01:01.435Z,20.83
2022-12-29T15:03:39.348Z,21.33
2022-12-29T15:06:12.476Z,26.40
2022-12-29T15:08:49.070Z,27.63
2022-12-29T15:11:24.791Z,31.63
2022-12-29T15:13:52.214Z,20.70
2022-12-29T15:16:30.183Z,25.08
2022-12-29T15:18:57.981Z,23.15
2022-12-29T15:21:31.392Z,24.23
2022-12-29T15:23:58.607Z,19.05
2022-12-29T15:26:38.334Z,23.30
2022-12-29T15:29:05.478Z,21.13
2022-12-29T15:31:32.657Z,22.15
2022-12-29T15:34:12.775Z,25.80
2022-12-29T15:36:42.507Z,24.50
2022-12-29T15:42:05.302Z,26.05
2022-12-29T15:44:42.094Z,31.55
2022-12-29T15:47:27.126Z,25.70
2022-12-29T15:49:59.492Z,28.00
2022-12-29T15:52:26.698Z,31.88
2022-12-29T15:54:54.934Z,30.13
2022-12-29T15:57:28.175Z,32.75
2022-12-29T15:59:55.539Z,32.40
2022-12-29T16:02:24.458Z,27.67
2022-12-29T16:05:16.523Z,26.25
2022-12-29T16:07:56.347Z,34.15
2022-12-29T16:10:37.907Z,29.83
2022-12-29T16:15:34.403Z,28.92
2022-12-29T16:18:01.646Z,24.83
2022-12-29T16:20:41.835Z,29.58
2022-12-29T16:23:21.962Z,27.98
2022-12-29T16:25:49.219Z,26.35
2022-12-29T16:28:44.328Z,29.73
2022-12-29T16:31:23.697Z,37.03
2022-12-29T16:33:55.978Z,35.13
2022-12-29T16:36:24.395Z,37.67
2022-12-29T16:38:51.587Z,29.05
2022-12-29T16:41:32.641Z,34.17
2022-12-29T16:44:23.250Z,34.97
2022-12-29T16:47:11.532Z,33.47
2022-12-29T16:49:41.653Z,37.50
2022-12-29T16:52:28.343Z,36.78
2022-12-29T16:55:04.341Z,36.60
2022-12-29T16:57:37.644Z,36.65
2022-12-29T17:00:08.483Z,32.00
2022-12-29T17:02:46.097Z,37.72
2022-12-29T17:05:18.478Z,41.00
2022-12-29T17:07:46.649Z,38.42
2022-12-29T17:10:16.883Z,34.47
2022-12-29T17:12:47.000Z,30.85
2022-12-29T17:15:27.937Z,33.67
2022-12-29T17:17:56.927Z,34.20
2022-12-29T17:20:27.508Z,33.83
2022-12-29T17:22:55.190Z,33.70
2022-12-29T17:25:29.994Z,33.00
2022-12-29T17:28:00.830Z,28.08
2022-12-29T17:30:33.810Z,33.03
2022-12-29T17:33:02.478Z,41.20
2022-12-29T17:35:29.460Z,39.88
2022-12-29T17:37:56.611Z,33.80
2022-12-29T17:40:27.762Z,38.08
2022-12-29T17:42:57.978Z,38.25
2022-12-29T17:45:27.615Z,38.90
2022-12-29T17:47:55.257Z,41.83
2022-12-29T17:50:27.097Z,42.05
2022-12-29T17:53:01.200Z,47.47
2022-12-29T17:55:36.656Z,35.38
2022-12-29T17:58:19.793Z,32.72
2022-12-29T18:00:52.519Z,39.85
2022-12-29T18:03:28.142Z,32.42
2022-12-29T18:05:56.103Z,31.55
2022-12-29T18:08:23.588Z,43.10
2022-12-29T18:10:55.287Z,36.38
2022-12-29T18:13:27.147Z,32.47
2022-12-29T18:15:57.291Z,36.08
2022-12-29T18:18:27.206Z,35.70
2022-12-29T18:20:59.062Z,38.17
2022-12-29T18:23:29.497Z,39.30
2022-12-29T18:25:59.475Z,51.80
2022-12-29T18:28:27.159Z,42.53
2022-12-29T18:30:55.899Z,40.22
2022-12-29T18:33:26.234Z,39.45
2022-12-29T18:36:05.459Z,36.35
2022-12-29T18:38:32.513Z,47.45
2022-12-29T18:41:00.766Z,35.30
2022-12-29T18:43:27.880Z,48.05
2022-12-29T18:45:54.960Z,36.53
2022-12-29T18:48:22.667Z,43.33
2022-12-29T18:50:52.023Z,37.88
2022-12-29T18:53:22.201Z,34.92
2022-12-29T18:55:49.470Z,42.42
2022-12-29T18:58:16.543Z,35.85
2022-12-29T19:00:45.197Z,43.15
2022-12-29T19:03:13.899Z,41.35
2022-12-29T19:05:43.243Z,31.20
2022-12-29T19:08:11.147Z,36.03
2022-12-29T19:10:39.775Z,33.28
2022-12-29T19:13:06.949Z,38.03
2022-12-29T19:15:38.030Z,37.10
2022-12-29T19:18:42.400Z,36.60
2022-12-29T19:20:56.941Z,37.90
2022-12-29T19:23:25.917Z,34.72
2022-12-29T19:25:55.006Z,40.20
2022-12-29T19:28:27.403Z,35.35
2022-12-29T19:30:58.387Z,35.53
2022-12-29T19:33:25.783Z,40.30
2022-12-29T19:35:53.242Z,36.90
2022-12-29T19:38:20.611Z,39.35
2022-12-29T19:40:50.691Z,35.17
2022-12-29T19:43:18.493Z,42.35
2022-12-29T19:45:45.831Z,39.70
2022-12-29T19:48:18.082Z,34.70
2022-12-29T19:50:45.640Z,42.50
2022-12-29T19:53:13.606Z,38.47
2022-12-29T19:55:47.950Z,39.33
2022-12-29T19:58:15.580Z,41.67
2022-12-29T20:00:43.639Z,35.55
2022-12-29T20:03:11.187Z,39.58
2022-12-29T20:05:39.383Z,32.20
2022-12-29T20:08:07.230Z,33.70
2022-12-29T20:10:34.263Z,39.97
2022-12-29T20:13:01.425Z,36.35
2022-12-29T20:15:28.419Z,40.70
2022-12-29T20:18:13.127Z,36.72
2022-12-29T20:20:41.208Z,31.65
2022-12-29T20:23:08.322Z,39.25
2022-12-29T20:25:44.896Z,36.22
2022-12-29T20:28:13.433Z,35.08
2022-12-29T20:30:40.557Z,54.45
2022-12-29T20:33:08.561Z,33.90
2022-12-29T20:35:36.849Z,38.95
2022-12-29T20:38:04.434Z,30.50
2022-12-29T20:40:31.581Z,31.10
2022-12-29T20:42:58.606Z,43.92
2022-12-29T20:45:26.064Z,41.55
2022-12-29T20:47:53.128Z,36.47
2022-12-29T20:50:20.140Z,29.52
2022-12-29T20:52:47.222Z,43.80
2022-12-29T20:55:14.689Z,34.35
2022-12-29T20:58:22.070Z,36.70
2022-12-29T21:00:32.977Z,35.83
2022-12-29T21:03:03.719Z,33.28
2022-12-29T21:05:30.820Z,28.88
2022-12-29T21:07:59.846Z,42.22
2022-12-29T21:10:27.113Z,52.42
2022-12-29T21:12:54.153Z,63.60
2022-12-29T21:15:21.239Z,37.42
2022-12-29T21:17:48.286Z,33.78
2022-12-29T21:20:20.301Z,40.08
2022-12-29T21:22:48.730Z,42.25
2022-12-29T21:25:16.005Z,33.97
2022-12-29T21:27:45.712Z,30.92
2022-12-29T21:32:40.775Z,41.15
2022-12-29T21:35:09.424Z,39.40
2022-12-29T21:37:36.871Z,43.80
2022-12-29T21:40:04.785Z,37.58
2022-12-29T21:42:32.184Z,35.65
2022-12-29T21:45:20.839Z,41.42
2022-12-29T21:48:07.148Z,37.63
2022-12-29T21:50:36.843Z,48.08
2022-12-29T21:53:03.812Z,40.60
2022-12-29T21:55:30.860Z,41.60
2022-12-29T21:58:16.254Z,45.47
2022-12-29T22:01:01.984Z,39.28
2022-12-29T22:03:47.709Z,39.28
2022-12-29T22:06:33.293Z,43.53
2022-12-29T22:09:20.618Z,40.95
2022-12-29T22:12:06.233Z,42.55
2022-12-29T22:14:33.237Z,46.50
2022-12-29T22:17:00.224Z,41.67
2022-12-29T22:19:27.216Z,51.53
2022-12-29T22:21:54.208Z,50.33
2022-12-29T22:24:21.225Z,41.10
2022-12-29T22:26:48.233Z,44.08
2022-12-29T22:29:15.223Z,45.85
2022-12-29T22:31:42.279Z,43.63
2022-12-29T22:34:11.005Z,44.13
2022-12-29T22:36:38.066Z,44.28
2022-12-29T22:39:05.063Z,43.45
2022-12-29T22:41:32.149Z,44.35
2022-12-29T22:43:59.200Z,42.60
2022-12-29T22:46:26.286Z,46.25
2022-12-29T22:48:53.357Z,48.45
2022-12-29T22:51:20.358Z,42.28
2022-12-29T22:53:51.438Z,42.22
2022-12-29T22:56:18.840Z,50.40
2022-12-29T22:58:48.012Z,47.05
2022-12-29T23:01:17.044Z,43.03
2022-12-29T23:03:44.788Z,45.95
2022-12-29T23:06:14.298Z,46.90
2022-12-29T23:08:41.382Z,41.33
2022-12-29T23:11:10.262Z,43.20
2022-12-29T23:13:38.295Z,48.22
2022-12-29T23:16:05.480Z,44.15
2022-12-29T23:18:32.656Z,39.47
2022-12-29T23:20:59.765Z,43.60
2022-12-29T23:23:49.189Z,44.00
2022-12-29T23:26:20.455Z,45.78
2022-12-29T23:28:48.392Z,42.38
2022-12-29T23:31:16.168Z,43.75
2022-12-29T23:33:43.295Z,43.13
2022-12-29T23:36:10.492Z,39.83
2022-12-29T23:38:37.542Z,41.03
2022-12-29T23:41:04.781Z,42.95
2022-12-29T23:43:32.248Z,50.30
2022-12-29T23:45:59.465Z,42.67
2022-12-29T23:48:26.497Z,43.00
2022-12-29T23:50:55.432Z,45.88
2022-12-29T23:53:22.434Z,39.92
2022-12-29T23:55:54.252Z,44.35
2022-12-29T23:58:21.882Z,40.08
